Terminal Aerodrome Forecast
Issued by NWS Sterling, VA

Current Version | Previous Version | Graphics & Text | Print | Product List | Glossary On
Versions: 1 2 3 4 5 6 7 8 9 10 11 12 13 14 15 16 17 18 19
000
FTUS41 KLWX 310533
TAFMRB
TAF
KMRB 310533Z 3106/0106 VRB03KT 2SM BR SCT070
      TEMPO 3106/3109 1/2SM FG
     FM310900 19006KT 1SM BR BKN070
     FM311300 20006KT 6SM BR BKN070
     FM311500 21006KT P6SM SCT070
     FM311700 21007KT P6SM BKN070
     FM010000 19005KT P6SM SHRA BKN060=

USA.gov is the U.S. government's official web portal to all federal, state and local government web resources and services.